Skip to main content.
Our real time weather data display below is updated continuously via our 24/7 live data feed.
 TIME   TEMPERATURE   WINDSPEED   DIRECTION   HUMIDITY   BAROMETER   RAINFALL 
6:20 15.0°C (59.0°F) 13.0 kmh (8.1 mph) E 82% 1019.0hPa (30.09 inHg) 0.0mm (0.00 in.)
5:20 15.0°C (59.0 °F) 20.4 kmh (12.7 mph) E 82% 1019.0hPa (30.09 inHg) 0.0mm (0.00 in.)
4:20 16.0°C (60.8 °F) 22.2 kmh (13.8 mph) E 77% 1019.0hPa (30.09 inHg) 0.0mm (0.00 in.)
3:20 16.0°C (60.8 °F) 25.9 kmh (16.1 mph) ENE 77% 1019.0hPa (30.09 inHg) 0.0mm (0.00 in.)
2:20 16.0°C (60.8 °F) 18.5 kmh (11.5 mph) E 77% 1019.0hPa (30.09 inHg) 0.0mm (0.00 in.)
1:20 16.0°C (60.8 °F) 25.9 kmh (16.1 mph) ENE 77% 1020.0hPa (30.12 inHg) 0.0mm (0.00 in.)
12:20 16.0°C (60.8 °F) 22.2 kmh (13.8 mph) E 77% 1020.0hPa (30.12 inHg) 0.0mm (0.00 in.)
11:19 16.0°C (60.8 °F) 27.8 kmh (17.3 mph) N 77% 1020.0hPa (30.12 inHg) 0.0mm (0.00 in.)
10:19 15.0°C (59.0 °F) 31.5 kmh (19.6 mph) N 82% 1019.0hPa (30.09 inHg) 0.0mm (0.00 in.)
9:19 15.0°C (59.0 °F) 22.2 kmh (13.8 mph) N 87% 1019.0hPa (30.09 inHg) 0.0mm (0.00 in.)
8:19 15.0°C (59.0 °F) 22.2 kmh (13.8 mph) N 82% 1019.0hPa (30.09 inHg) 0.0mm (0.00 in.)
7:19 14.0°C (57.2 °F) 20.4 kmh (12.7 mph) N 87% 1019.0hPa (30.09 inHg) 0.0mm (0.00 in.)
6:14 14.0°C (57.2 °F) 18.5 kmh (11.5 mph) N 87% 1017.9hPa (30.06 inHg) 0.0mm (0.00 in.)
5:14 14.0°C (57.2 °F) 14.8 kmh (9.2 mph) N 87% 1017.9hPa (30.06 inHg) 0.0mm (0.00 in.)
4:14 13.0°C (55.4 °F) 14.8 kmh (9.2 mph) N 93% 1019.0hPa (30.09 inHg) 0.0mm (0.00 in.)
3:14 14.0°C (57.2 °F) 18.5 kmh (11.5 mph) N 87% 1019.0hPa (30.09 inHg) 0.0mm (0.00 in.)
2:14 14.0°C (57.2 °F) 20.4 kmh (12.7 mph) N 93% 1019.0hPa (30.09 inHg) 0.0mm (0.00 in.)
1:14 14.0°C (57.2 °F) 18.5 kmh (11.5 mph) N 87% 1020.0hPa (30.12 inHg) 0.0mm (0.00 in.)
12:14 14.0°C (57.2 °F) 22.2 kmh (13.8 mph) N 93% 1020.0hPa (30.12 inHg) 0.0mm (0.00 in.)
11:14 14.0°C (57.2 °F) 14.8 kmh (9.2 mph) N 87% 1019.0hPa (30.09 inHg) 0.0mm (0.00 in.)
10:14 14.0°C (57.2 °F) 20.4 kmh (12.7 mph) N 87% 1019.0hPa (30.09 inHg) 0.0mm (0.00 in.)
9:14 15.0°C (59.0 °F) 20.4 kmh (12.7 mph) N 82% 1019.0hPa (30.09 inHg) 0.0mm (0.00 in.)
8:14 14.0°C (57.2 °F) 24.1 kmh (15.0 mph) N 87% 1019.0hPa (30.09 inHg) 0.0mm (0.00 in.)
7:14 15.0°C (59.0 °F) 20.4 kmh (12.7 mph) N 87% 1017.9hPa (30.06 inHg) 0.0mm (0.00 in.)